Terminal Aerodrome Forecast
Issued by NWS San Angelo, TX

Current Version | Previous Version | Text Only | Print | Product List | Glossary On
Versions: 1 2 3 4 5 6 7 8 9 10 11 12 13 14 15 16 17 18 19 20 21
000
FTUS44 KSJT 282333
TAFABI
TAF
KABI 282333Z 2900/2924 VRB06KT P6SM FEW150
     FM291800 08010KT P6SM BKN050 PROB30 2918/2924 P6SM TS BKN050CB=

USA.gov is the U.S. government's official web portal to all federal, state and local government web resources and services.